Airfield :
LOGIN :

Register | Disclaimer

   EN    FR    IT 

 










Legend :    VFR   Marginal VFR   IFR   Intensive IFR   Very Intensive IFR
Visi :
Ceiling :
>= 8 km
>= 3000ft
5 to 8 km
1000 to 3000 ft
1500m to 5 km
500 to 1000 ft
800 to 1500m
200 to 500 ft
< 800m
< 200 ft
Symbols :   Thunderstorms  Fog  Heavy snow  Heavy precipitations  Wind > 20 kt
SIGMETs :     Misc.  Thunderstorms  Icing  Turbulence  Mountain Waves  Volcanic Ashes






- Airport Elevation : 14 ft
- IATA code : BRE


EDDW - Bremen Neuenland

CURRENT METAR :
  • 100350Z 04004KT CAVOK 03/01 Q1028 NOSIG

EXPIRED METARs :
  • 100320Z 04006KT CAVOK 04/01 Q1028
  • 100250Z 03008KT CAVOK 04/02 Q1028
  • 100220Z 03008KT CAVOK 04/02 Q1028
  • 100150Z 01007KT CAVOK 05/02 Q1028
  • 100120Z 36006KT 330V030 CAVOK 05/02 Q1028
  • 100050Z 36007KT 340V040 CAVOK 05/03 Q1028

TAF TAF EDDW
Valid from the 10 at 00:00 until the 11 at 00:00 UTC


092300Z 1000/1024 36004KT CAVOK
BECMG 1010/1012 36009KT
BECMG 1019/1021 01004KT



MET'MAP, your aeronautical weather chart ! - Copyright ORBIFLY December 2007 - Disclaimer

ORBIFLY MET'MAP TEAM :

Programming & Development : Alexandra Zaïnal
Concept & original design : Baudouin d'Aumeries
Assistance for programming : Marc-Olivier Méhu
Technical & hardware support : Manuel Goepfert

Contact : metmap@orbifly.com




SOURCES & CREDITS :

   NOAA